Langdon Bay, United Kingdom
Current Conditions -  °F | °C
As of 6:50 PM on Wednesday 17 Dec 2014 (Local Time) from EGMD Reporting Station
Light Rain Light Rain  
Wind Chill: 54°   Ceiling: Unl
Heat Index: 54°   Visibility: 6mi
Dew Point: 52°   Wind: 14mph
Humidity: 94%   Direction: 240°WSW
Pressure: 29.8"   Gusts: NA
Location:  51.13°N, 1.35°E
Report Text: EGMD 171850Z 24012KT 9999 -RA SCT022 12/11 Q1009
Loading
Personal Weather Stations






























Interactive Weather Map New forecast layout! Learn more

10-Day Weather Forecast

Advertisements
Track Severe Weather on mobile